Time;durP1;ratioP1;P1;durP2;ratioP2;P2;SDS_P1;SDS_P2;PMS_P1;PMS_P2;Temp;Humidity;BMP_temperature;BMP_pressure;BME280_temperature;BME280_humidity;BME280_pressure;Samples;Min_cycle;Max_cycle;Signal;HPM_P1;HPM_P2
2021/09/29 00:03:45;;;;;;;5.97;2.97;;;;;;;;;;10272849;28;20072;-59
2021/09/29 00:08:43;;;;;;;10.60;1.97;;;;;;;;;;10280678;28;20037;-59
2021/09/29 00:13:40;;;;;;;6.20;3.17;;;;;;;;;;10288330;28;20088;-59
2021/09/29 00:18:38;;;;;;;4.97;2.17;;;;;;;;;;10288305;28;20132;-60
2021/09/29 00:23:35;;;;;;;6.83;3.10;;;;;;;;;;10288849;28;20129;-60
2021/09/29 00:28:32;;;;;;;5.53;2.80;;;;;;;;;;10290298;28;20124;-59
2021/09/29 00:33:31;;;;;;;5.97;3.33;;;;;;;;;;10295295;28;20041;-59
2021/09/29 00:38:31;;;;;;;6.15;3.28;;;;;;;;;;10302244;28;20039;-60
2021/09/29 00:43:28;;;;;;;6.30;2.63;;;;;;;;;;10295906;28;20033;-60
2021/09/29 00:48:25;;;;;;;5.73;3.20;;;;;;;;;;10295425;28;20036;-61
2021/09/29 00:53:23;;;;;;;5.07;2.57;;;;;;;;;;10288245;28;20175;-61
2021/09/29 00:58:20;;;;;;;7.80;3.57;;;;;;;;;;10296120;28;20145;-60
2021/09/29 01:03:18;;;;;;;4.73;2.80;;;;;;;;;;10289679;28;20037;-60
2021/09/29 01:08:16;;;;;;;4.23;2.87;;;;;;;;;;10298945;28;20101;-60
2021/09/29 01:13:13;;;;;;;;;;;;;;;;;;10293512;28;20037;-61
2021/09/29 01:18:13;;;;;;;5.85;3.40;;;;;;;;;;10295079;28;20281;-61
2021/09/29 01:23:29;;;;;;;6.63;2.10;;;;;;;;;;10289874;28;20407;-61
2021/09/29 01:28:28;;;;;;;7.68;3.80;;;;;;;;;;10298174;28;20163;-60
2021/09/29 01:33:27;;;;;;;17.50;9.13;;;;;;;;;;10291751;28;20049;-59
2021/09/29 01:38:25;;;;;;;15.88;8.75;;;;;;;;;;10286776;28;20021;-60
2021/09/29 01:43:22;;;;;;;3.50;1.95;;;;;;;;;;10295690;28;20037;-59
2021/09/29 01:48:20;;;;;;;8.87;4.27;;;;;;;;;;10296877;28;20183;-60
2021/09/29 01:53:18;;;;;;;9.73;3.73;;;;;;;;;;10283921;28;20038;-60
2021/09/29 01:58:16;;;;;;;5.05;2.38;;;;;;;;;;10298783;28;21149;-60
2021/09/29 02:03:19;;;;;;;6.78;3.90;;;;;;;;;;10292392;28;20037;-60
2021/09/29 02:08:16;;;;;;;7.45;2.83;;;;;;;;;;10292890;28;20420;-59
2021/09/29 02:13:14;;;;;;;6.23;2.53;;;;;;;;;;10297617;28;20183;-59
2021/09/29 02:18:11;;;;;;;8.70;4.20;;;;;;;;;;10290933;28;20038;-59
2021/09/29 02:23:09;;;;;;;6.80;3.23;;;;;;;;;;10295472;28;20531;-60
2021/09/29 02:28:06;;;;;;;4.47;1.87;;;;;;;;;;10293761;28;20034;-60
2021/09/29 02:33:03;;;;;;;2.23;1.60;;;;;;;;;;10293323;28;20033;-59
2021/09/29 02:38:01;;;;;;;6.57;3.63;;;;;;;;;;10292517;28;20038;-60
2021/09/29 02:42:58;;;;;;;16.40;6.13;;;;;;;;;;10297098;28;20030;-60
2021/09/29 02:47:56;;;;;;;11.20;2.87;;;;;;;;;;10294740;28;20096;-59
2021/09/29 02:52:53;;;;;;;5.57;2.10;;;;;;;;;;10286733;28;20157;-60
2021/09/29 02:57:52;;;;;;;2.87;2.07;;;;;;;;;;10283839;28;20041;-58
2021/09/29 03:02:49;;;;;;;13.57;6.22;;;;;;;;;;10300655;28;20141;-59
2021/09/29 03:07:47;;;;;;;13.90;7.63;;;;;;;;;;10303820;28;20061;-59
2021/09/29 03:12:44;;;;;;;15.20;5.57;;;;;;;;;;10273629;28;20050;-58
2021/09/29 03:17:42;;;;;;;14.40;9.43;;;;;;;;;;10275986;28;20032;-59
2021/09/29 03:22:39;;;;;;;9.33;4.63;;;;;;;;;;10274619;28;20037;-61
2021/09/29 03:27:36;;;;;;;9.10;4.83;;;;;;;;;;10279114;28;20038;-60
2021/09/29 03:32:34;;;;;;;12.17;7.23;;;;;;;;;;10288235;28;20120;-60
2021/09/29 03:37:31;;;;;;;15.27;5.60;;;;;;;;;;10292293;28;20033;-60
2021/09/29 03:42:29;;;;;;;17.50;9.97;;;;;;;;;;10300406;28;20048;-61
2021/09/29 03:47:26;;;;;;;7.33;4.30;;;;;;;;;;10260877;28;20562;-61
2021/09/29 03:52:23;;;;;;;6.50;2.67;;;;;;;;;;10244222;28;20145;-60
2021/09/29 03:57:21;;;;;;;5.97;3.50;;;;;;;;;;10231709;28;20626;-60
2021/09/29 04:02:18;;;;;;;2.87;2.17;;;;;;;;;;10258518;28;20545;-60
2021/09/29 04:07:16;;;;;;;16.80;7.20;;;;;;;;;;10291964;28;20038;-60
2021/09/29 04:12:13;;;;;;;11.20;6.20;;;;;;;;;;10307676;28;20584;-60
2021/09/29 04:17:11;;;;;;;11.97;5.07;;;;;;;;;;10308114;28;20041;-60
2021/09/29 04:22:11;;;;;;;3.20;2.90;;;;;;;;;;10278559;28;20554;-60
2021/09/29 04:27:08;;;;;;;8.63;5.68;;;;;;;;;;10288862;28;20387;-61
2021/09/29 04:32:07;;;;;;;10.73;4.43;;;;;;;;;;10273832;28;20040;-61
2021/09/29 04:37:04;;;;;;;6.43;4.03;;;;;;;;;;10287174;28;20049;-61
2021/09/29 04:42:02;;;;;;;6.73;4.33;;;;;;;;;;10289049;28;20037;-61
2021/09/29 04:46:59;;;;;;;7.43;4.20;;;;;;;;;;10289987;28;20120;-61
2021/09/29 04:51:57;;;;;;;4.67;3.13;;;;;;;;;;10289707;28;20049;-59
2021/09/29 04:56:54;;;;;;;10.57;4.97;;;;;;;;;;10295118;28;20631;-60
2021/09/29 05:01:53;;;;;;;8.70;4.67;;;;;;;;;;10275676;28;20479;-58
2021/09/29 05:06:52;;;;;;;10.20;3.97;;;;;;;;;;10269733;28;20132;-58
2021/09/29 05:11:58;;;;;;;12.15;4.80;;;;;;;;;;10286561;28;20092;-60
2021/09/29 05:16:55;;;;;;;7.53;4.75;;;;;;;;;;10285024;28;20061;-59
2021/09/29 05:21:52;;;;;;;7.23;3.63;;;;;;;;;;10270195;28;20511;-61
2021/09/29 05:26:50;;;;;;;9.67;3.93;;;;;;;;;;10280086;28;20040;-60
2021/09/29 05:31:47;;;;;;;9.83;4.47;;;;;;;;;;10280786;28;21234;-60
2021/09/29 05:36:45;;;;;;;7.80;3.90;;;;;;;;;;10282037;28;20073;-59
2021/09/29 05:41:43;;;;;;;8.35;4.20;;;;;;;;;;10265362;28;20535;-60
2021/09/29 05:46:40;;;;;;;10.30;4.00;;;;;;;;;;10287216;28;20125;-59
2021/09/29 05:51:38;;;;;;;10.00;3.50;;;;;;;;;;10291657;28;20415;-60
2021/09/29 05:56:35;;;;;;;6.87;3.70;;;;;;;;;;10280922;28;20545;-59
2021/09/29 06:01:32;;;;;;;7.00;4.23;;;;;;;;;;10291502;28;20088;-60
2021/09/29 06:06:30;;;;;;;10.17;4.27;;;;;;;;;;10292956;28;20041;-60
2021/09/29 06:11:27;;;;;;;3.80;3.07;;;;;;;;;;10294084;28;20537;-60
2021/09/29 06:16:25;;;;;;;10.33;4.10;;;;;;;;;;10294136;28;20120;-60
2021/09/29 06:21:23;;;;;;;5.10;2.60;;;;;;;;;;10290246;28;20080;-60
2021/09/29 06:26:20;;;;;;;6.17;3.73;;;;;;;;;;10287675;28;20033;-60
2021/09/29 06:31:18;;;;;;;7.63;3.50;;;;;;;;;;10296654;28;20052;-61
2021/09/29 06:36:15;;;;;;;6.53;4.07;;;;;;;;;;10290720;28;20044;-61
2021/09/29 06:41:13;;;;;;;6.40;3.27;;;;;;;;;;10280351;28;20045;-60
2021/09/29 06:46:12;;;;;;;4.77;2.67;;;;;;;;;;10288432;28;20433;-60
2021/09/29 06:51:10;;;;;;;4.38;3.17;;;;;;;;;;10286048;28;20041;-60
2021/09/29 06:56:07;;;;;;;9.37;2.63;;;;;;;;;;10274595;28;20499;-60
2021/09/29 07:01:05;;;;;;;4.00;2.63;;;;;;;;;;10286771;28;20029;-62
2021/09/29 07:06:02;;;;;;;2.43;2.10;;;;;;;;;;10265198;28;20088;-61
2021/09/29 07:11:00;;;;;;;3.80;2.70;;;;;;;;;;10266146;28;20046;-61
2021/09/29 07:15:57;;;;;;;3.00;2.30;;;;;;;;;;10283933;28;20447;-60
2021/09/29 07:20:56;;;;;;;;;;;;;;;;;;10272270;28;20483;-60
2021/09/29 07:25:53;;;;;;;4.00;2.53;;;;;;;;;;10246503;28;19920;-61
2021/09/29 07:30:52;;;;;;;3.47;2.23;;;;;;;;;;10289369;28;20034;-60
2021/09/29 07:35:50;;;;;;;6.30;2.80;;;;;;;;;;10280151;28;20099;-60
2021/09/29 07:40:47;;;;;;;;;;;;;;;;;;10285726;28;20120;-60
2021/09/29 07:45:45;;;;;;;6.55;3.60;;;;;;;;;;10273671;28;20083;-59
2021/09/29 07:50:43;;;;;;;5.10;2.17;;;;;;;;;;10275138;28;20578;-61
2021/09/29 07:55:40;;;;;;;2.27;1.57;;;;;;;;;;10288601;28;20495;-60
2021/09/29 08:00:37;;;;;;;3.23;2.43;;;;;;;;;;10279032;28;20037;-61
2021/09/29 08:05:35;;;;;;;4.50;2.13;;;;;;;;;;10270292;28;20065;-61
2021/09/29 08:10:32;;;;;;;3.43;2.13;;;;;;;;;;10273255;28;20517;-60
2021/09/29 08:15:30;;;;;;;7.33;2.43;;;;;;;;;;10275266;28;20030;-58
2021/09/29 08:20:29;;;;;;;5.00;2.80;;;;;;;;;;10283567;28;20103;-61
2021/09/29 08:35:58;;;;;;;4.35;2.20;;;;;;;;;;10264672;28;20034;-60
2021/09/29 08:46:07;;;;;;;5.13;2.53;;;;;;;;;;10286778;28;20033;-59
2021/09/29 08:56:17;;;;;;;4.75;2.28;;;;;;;;;;10280786;28;20041;-60
2021/09/29 09:17:05;;;;;;;5.30;2.10;;;;;;;;;;10283075;28;20131;-60
2021/09/29 09:22:03;;;;;;;2.97;1.92;;;;;;;;;;10293266;28;20038;-59
2021/09/29 09:27:02;;;;;;;4.32;2.30;;;;;;;;;;10284561;28;20053;-60
2021/09/29 09:32:06;;;;;;;3.00;1.92;;;;;;;;;;10274471;28;20047;-60
2021/09/29 09:37:08;;;;;;;5.30;1.98;;;;;;;;;;10288827;28;20060;-60
2021/09/29 09:42:07;;;;;;;2.58;1.63;;;;;;;;;;10288525;28;20124;-60
2021/09/29 09:47:08;;;;;;;2.92;1.65;;;;;;;;;;10292463;28;20033;-60
2021/09/29 09:52:05;;;;;;;2.70;1.63;;;;;;;;;;10286603;28;20648;-61
2021/09/29 09:57:03;;;;;;;1.63;1.53;;;;;;;;;;10286835;28;20496;-61
2021/09/29 10:02:00;;;;;;;2.08;1.77;;;;;;;;;;10279798;28;20066;-60
2021/09/29 10:06:58;;;;;;;7.20;1.23;;;;;;;;;;10284622;28;20494;-60
2021/09/29 10:27:51;;;;;;;3.85;1.73;;;;;;;;;;10277866;28;20107;-61
2021/09/29 10:32:51;;;;;;;6.70;1.65;;;;;;;;;;10285982;28;20080;-61
2021/09/29 10:42:59;;;;;;;4.05;1.85;;;;;;;;;;10280841;28;20487;-60
2021/09/29 11:30:34;;;;;;;5.05;1.98;;;;;;;;;;10220538;28;20628;-60
2021/09/29 12:12:30;;;;;;;6.68;1.77;;;;;;;;;;10240358;28;20046;-57
2021/09/29 12:17:30;;;;;;;1.75;1.63;;;;;;;;;;10232534;28;20075;-61
2021/09/29 12:22:32;;;;;;;1.73;1.30;;;;;;;;;;10225764;28;20503;-59
2021/09/29 12:27:36;;;;;;;5.45;2.60;;;;;;;;;;10251899;28;20074;-62
2021/09/29 12:32:56;;;;;;;4.18;1.38;;;;;;;;;;10246748;28;20037;-60
2021/09/29 12:37:54;;;;;;;4.68;1.77;;;;;;;;;;10245470;28;20030;-61
2021/09/29 12:42:56;;;;;;;2.90;1.17;;;;;;;;;;10244983;28;20049;-62
2021/09/29 12:47:54;;;;;;;2.92;1.30;;;;;;;;;;10246853;28;20037;-61
2021/09/29 12:53:14;;;;;;;1.73;0.80;;;;;;;;;;10241517;28;20030;-60
2021/09/29 12:58:08;;;;;;;1.95;0.77;;;;;;;;;;10247578;28;20078;-61
2021/09/29 13:03:06;;;;;;;1.87;1.13;;;;;;;;;;10249916;28;20048;-60
2021/09/29 13:08:04;;;;;;;6.55;1.83;;;;;;;;;;10243460;28;20045;-61
2021/09/29 13:13:01;;;;;;;2.80;1.40;;;;;;;;;;10278008;28;20377;-59
2021/09/29 13:17:59;;;;;;;3.03;2.00;;;;;;;;;;10272850;28;20041;-59
2021/09/29 13:38:48;;;;;;;2.70;1.30;;;;;;;;;;10285735;28;20499;-60
2021/09/29 13:43:45;;;;;;;1.40;0.83;;;;;;;;;;10276857;28;20041;-60
2021/09/29 13:48:43;;;;;;;2.50;0.90;;;;;;;;;;10275323;28;20400;-59
2021/09/29 13:53:40;;;;;;;2.40;1.43;;;;;;;;;;10263426;28;20116;-60
2021/09/29 13:58:52;;;;;;;5.73;0.83;;;;;;;;;;10283348;28;20040;-60
2021/09/29 14:14:26;;;;;;;2.35;0.90;;;;;;;;;;10282113;28;20044;-59
2021/09/29 14:30:03;;;;;;;1.67;0.50;;;;;;;;;;10277026;28;20045;-59
2021/09/29 14:35:00;;;;;;;2.05;0.70;;;;;;;;;;10276387;28;20513;-59
2021/09/29 14:39:58;;;;;;;5.63;0.57;;;;;;;;;;10281223;28;20414;-60
2021/09/29 14:44:55;;;;;;;0.70;0.63;;;;;;;;;;10277635;28;20120;-59
2021/09/29 14:49:53;;;;;;;1.53;0.50;;;;;;;;;;10253207;28;20047;-58
2021/09/29 14:54:50;;;;;;;0.57;0.50;;;;;;;;;;10283441;28;20747;-59
2021/09/29 14:59:48;;;;;;;2.20;0.60;;;;;;;;;;10280595;28;20036;-60
2021/09/29 15:04:46;;;;;;;1.03;0.53;;;;;;;;;;10278643;28;20100;-59
2021/09/29 15:09:44;;;;;;;0.70;0.70;;;;;;;;;;10267725;28;20041;-59
2021/09/29 15:20:59;;;;;;;2.58;1.50;;;;;;;;;;10273971;28;20045;-59
2021/09/29 15:26:06;;;;;;;5.85;1.30;;;;;;;;;;10263240;28;20030;-60
2021/09/29 15:47:01;;;;;;;1.25;0.70;;;;;;;;;;10257670;28;20136;-59
2021/09/29 15:52:16;;;;;;;0.82;0.50;;;;;;;;;;10275463;28;20041;-58
2021/09/29 16:02:45;;;;;;;8.75;3.42;;;;;;;;;;10231195;28;20044;-58
2021/09/29 16:19:08;;;;;;;2.38;1.60;;;;;;;;;;10274896;28;20034;-59
2021/09/29 16:38:41;;;;;;;4.25;2.00;;;;;;;;;;10277429;28;20048;-58
2021/09/29 16:43:38;;;;;;;;;;;;;;;;;;10279143;28;20030;-58
2021/09/29 16:48:36;;;;;;;2.90;1.70;;;;;;;;;;10282869;28;19913;-59
2021/09/29 16:53:37;;;;;;;4.38;1.33;;;;;;;;;;10243406;28;20041;-58
2021/09/29 17:03:32;;;;;;;2.33;1.00;;;;;;;;;;10277051;28;20140;-58
2021/09/29 17:08:30;;;;;;;1.03;0.73;;;;;;;;;;10281854;28;20038;-58
2021/09/29 17:13:36;;;;;;;2.33;0.70;;;;;;;;;;10283218;28;20499;-58
2021/09/29 17:18:34;;;;;;;1.48;0.47;;;;;;;;;;10287078;28;20616;-58
2021/09/29 17:23:34;;;;;;;3.33;0.73;;;;;;;;;;10286313;28;20406;-58
2021/09/29 17:28:31;;;;;;;2.00;0.30;;;;;;;;;;10279102;28;20538;-58
2021/09/29 17:54:01;;;;;;;1.97;0.77;;;;;;;;;;10287357;28;20048;-60
2021/09/29 17:58:58;;;;;;;4.50;1.00;;;;;;;;;;10287292;28;20037;-59
2021/09/29 18:08:57;;;;;;;2.85;0.57;;;;;;;;;;10276695;28;20037;-59
2021/09/29 18:13:54;;;;;;;4.50;1.03;;;;;;;;;;10280721;28;20064;-60
2021/09/29 18:18:51;;;;;;;3.07;0.90;;;;;;;;;;10278491;28;20262;-60
2021/09/29 18:23:49;;;;;;;1.80;0.40;;;;;;;;;;10271958;28;20056;-60
2021/09/29 18:28:47;;;;;;;3.50;0.60;;;;;;;;;;10283686;28;20049;-59
2021/09/29 18:33:45;;;;;;;4.55;0.63;;;;;;;;;;10273663;28;20041;-61
2021/09/29 18:38:45;;;;;;;2.97;0.43;;;;;;;;;;10276202;28;20072;-60
2021/09/29 18:43:42;;;;;;;0.70;0.68;;;;;;;;;;10278464;28;20068;-59
2021/09/29 18:48:39;;;;;;;5.00;0.90;;;;;;;;;;10279142;28;20551;-59
2021/09/29 18:53:44;;;;;;;5.50;0.70;;;;;;;;;;10276362;28;20108;-59
2021/09/29 19:04:10;;;;;;;0.43;0.43;;;;;;;;;;10270776;28;20080;-59
2021/09/29 19:09:09;;;;;;;0.77;0.57;;;;;;;;;;10276564;28;20235;-60
2021/09/29 19:14:06;;;;;;;6.60;1.57;;;;;;;;;;10257993;28;20710;-62
2021/09/29 19:19:05;;;;;;;5.40;0.70;;;;;;;;;;10268594;28;20033;-60
2021/09/29 19:24:02;;;;;;;;;;;;;;;;;;10279276;28;20522;-59
2021/09/29 19:28:59;;;;;;;2.78;0.80;;;;;;;;;;10267280;28;19995;-59
2021/09/29 19:33:59;;;;;;;1.73;0.60;;;;;;;;;;10276541;28;20691;-59
2021/09/29 19:38:56;;;;;;;1.63;0.60;;;;;;;;;;10276257;28;20038;-58
2021/09/29 19:43:56;;;;;;;1.17;0.80;;;;;;;;;;10275112;28;20039;-59
2021/09/29 19:49:14;;;;;;;2.75;0.80;;;;;;;;;;10278801;28;20033;-58
2021/09/29 20:10:03;;;;;;;3.30;0.95;;;;;;;;;;10257230;28;20667;-59
2021/09/29 20:15:01;;;;;;;2.60;0.50;;;;;;;;;;10277476;28;20116;-56
2021/09/29 20:20:02;;;;;;;2.72;0.57;;;;;;;;;;10278478;28;20034;-58
2021/09/29 20:24:59;;;;;;;0.73;0.30;;;;;;;;;;10268492;28;20048;-58
2021/09/29 20:29:56;;;;;;;5.20;1.07;;;;;;;;;;10271482;28;20033;-58
2021/09/29 20:45:26;;;;;;;4.65;0.90;;;;;;;;;;10286019;28;20029;-58
2021/09/29 20:50:23;;;;;;;2.23;0.60;;;;;;;;;;10282715;28;20079;-57
2021/09/29 20:55:22;;;;;;;3.40;0.50;;;;;;;;;;10280879;28;20127;-57
2021/09/29 21:00:20;;;;;;;2.83;0.63;;;;;;;;;;10284863;28;20037;-58
2021/09/29 21:05:18;;;;;;;1.92;0.52;;;;;;;;;;10268462;28;20406;-58
2021/09/29 21:10:18;;;;;;;3.13;0.77;;;;;;;;;;10284744;28;20045;-60
2021/09/29 21:20:18;;;;;;;1.00;0.52;;;;;;;;;;10281184;28;20061;-57
2021/09/29 21:25:15;;;;;;;6.83;0.80;;;;;;;;;;10277243;28;20072;-58
2021/09/29 21:30:13;;;;;;;1.93;0.80;;;;;;;;;;10268400;28;20276;-59
2021/09/29 21:35:16;;;;;;;0.53;0.53;;;;;;;;;;10276797;28;20041;-60
2021/09/29 23:14:26;;;;;;;2.22;0.93;;;;;;;;;;10238702;28;20045;-61
2021/09/29 23:35:11;;;;;;;5.03;1.02;;;;;;;;;;10292245;28;20037;-61
2021/09/29 23:40:14;;;;;;;11.60;0.82;;;;;;;;;;10276458;28;20042;-62
2021/09/29 23:45:12;;;;;;;4.13;0.95;;;;;;;;;;10268051;28;20029;-62
2021/09/29 23:50:11;;;;;;;1.35;0.47;;;;;;;;;;10285375;28;20086;-60
2021/09/29 23:55:09;;;;;;;2.85;0.63;;;;;;;;;;10285890;28;20057;-60
